createdAt,value
2019-03-24T00:03:32.389Z,95932.8
2019-03-24T00:08:29.886Z,95933.1
2019-03-24T00:13:27.449Z,95939.5
2019-03-24T00:18:24.780Z,95939.2
2019-03-24T00:23:22.242Z,95905.3
2019-03-24T00:28:19.490Z,95909.3
2019-03-24T00:33:16.975Z,95938.6
2019-03-24T00:38:14.682Z,95940.7
2019-03-24T00:43:12.242Z,95939.2
2019-03-24T00:48:10.027Z,95934.9
2019-03-24T00:53:07.673Z,95931.9
2019-03-24T00:58:05.185Z,96013
2019-03-24T01:03:02.644Z,95924.4
2019-03-24T01:07:59.577Z,95924.3
2019-03-24T01:12:57.006Z,95916.6
2019-03-24T01:17:54.444Z,95916.1
2019-03-24T01:22:51.921Z,95917.7
2019-03-24T01:27:49.208Z,95928.7
2019-03-24T01:32:47.338Z,96002.6
2019-03-24T01:37:44.799Z,95924.5
2019-03-24T01:42:42.386Z,95924.2
2019-03-24T01:47:40.012Z,95923.2
2019-03-24T01:52:37.566Z,95928.4
2019-03-24T01:57:35.208Z,95920.1
2019-03-24T02:02:32.625Z,95917.9
2019-03-24T02:07:30.106Z,95924.9
2019-03-24T02:12:27.618Z,95908.6
2019-03-24T02:17:25.212Z,95895.1
2019-03-24T02:22:23.128Z,95903.7
2019-03-24T02:27:20.770Z,95904.1
2019-03-24T02:32:18.511Z,95897.4
2019-03-24T02:37:16.187Z,95901.8
2019-03-24T02:42:13.887Z,95912.2
2019-03-24T02:47:11.413Z,95914.5
2019-03-24T02:52:08.832Z,95918.2
2019-03-24T02:57:06.092Z,95913.1
2019-03-24T03:02:03.521Z,95914.5
2019-03-24T03:07:00.927Z,95906.8
2019-03-24T03:11:58.449Z,95909.1
2019-03-24T03:16:56.051Z,95903.6
2019-03-24T03:21:53.342Z,95880.7
2019-03-24T03:26:50.759Z,95923.6
2019-03-24T03:36:45.451Z,95919.3
2019-03-24T03:41:43.178Z,95918.6
2019-03-24T03:46:51.761Z,96000.3
2019-03-24T03:51:38.352Z,95907.6
2019-03-24T03:56:36.050Z,95917.5
2019-03-24T04:01:33.377Z,95925.7
2019-03-24T04:06:30.428Z,95928.4
2019-03-24T04:11:28.261Z,96015.8
2019-03-24T04:16:25.313Z,95938.4
2019-03-24T04:21:22.666Z,95943.1
2019-03-24T04:26:20.127Z,95943.7
2019-03-24T04:31:17.755Z,95941.9
2019-03-24T04:36:15.215Z,95942.6
2019-03-24T04:41:13.273Z,95943.6
2019-03-24T04:46:10.671Z,95943.1
2019-03-24T04:51:08.237Z,96032.8
2019-03-24T04:56:05.925Z,95940
2019-03-24T05:01:03.523Z,95950.9
2019-03-24T05:06:01.315Z,95951.9
2019-03-24T05:10:58.825Z,95958.3
2019-03-24T05:15:56.554Z,95964.6
2019-03-24T05:20:53.650Z,95966.3
2019-03-24T05:25:50.670Z,95976.4
2019-03-24T05:30:48.007Z,96028.2
2019-03-24T05:35:45.340Z,95979.5
2019-03-24T05:40:42.800Z,95985.1
2019-03-24T05:45:40.253Z,95998
2019-03-24T05:50:37.791Z,95998.6
2019-03-24T05:55:35.182Z,95995.9
2019-03-24T06:00:32.651Z,96000.3
2019-03-24T06:05:30.063Z,95990.8
2019-03-24T06:10:27.468Z,95990.9
2019-03-24T06:15:24.675Z,95988.7
2019-03-24T06:20:22.287Z,95995.9
2019-03-24T06:25:19.725Z,95990.6
2019-03-24T06:30:16.995Z,95986.8
2019-03-24T06:35:14.434Z,95991.6
2019-03-24T06:40:11.969Z,95996.5
2019-03-24T06:45:10.096Z,96083.4
2019-03-24T06:50:07.478Z,95943
2019-03-24T06:55:04.793Z,96005.5
2019-03-24T07:00:02.353Z,96001.3
2019-03-24T07:05:00.032Z,96000.1
2019-03-24T07:09:57.467Z,96003
2019-03-24T07:14:54.974Z,95992
2019-03-24T07:19:52.631Z,95994.7
2019-03-24T07:24:50.307Z,96002
2019-03-24T07:29:47.884Z,95996.3
2019-03-24T07:34:45.494Z,95997
2019-03-24T07:39:43.583Z,95995.5
2019-03-24T07:44:41.220Z,95990.3
2019-03-24T07:49:38.772Z,95900.8
2019-03-24T07:54:36.412Z,95990.3
2019-03-24T07:59:34.675Z,95982.8
2019-03-24T08:04:32.230Z,95983.8
2019-03-24T08:09:29.753Z,95984.2
2019-03-24T08:14:27.528Z,96052.4
2019-03-24T08:19:25.624Z,95933.4
2019-03-24T08:24:23.481Z,96048.7
2019-03-24T08:29:21.542Z,96042.1
2019-03-24T08:34:18.804Z,95960
2019-03-24T08:39:16.408Z,95950.2
2019-03-24T08:44:14.504Z,96024.3
2019-03-24T08:49:11.988Z,95948.4
2019-03-24T08:54:09.723Z,95934
2019-03-24T08:59:07.473Z,95923.5
2019-03-24T09:04:05.232Z,95926.2
2019-03-24T09:09:03.486Z,96014.4
2019-03-24T09:14:01.046Z,95911.9
2019-03-24T09:18:58.893Z,95889.6
2019-03-24T09:23:56.535Z,95893.6
2019-03-24T09:28:54.136Z,95885.6
2019-03-24T09:33:51.677Z,95930.2
2019-03-24T09:38:49.347Z,95956.6
2019-03-24T09:43:46.970Z,95959.8
2019-03-24T09:48:44.685Z,95956
2019-03-24T09:53:42.625Z,95876.2
2019-03-24T09:58:40.485Z,95957.8
2019-03-24T10:03:38.159Z,95935.3
2019-03-24T10:08:35.330Z,95942.1
2019-03-24T10:13:33.281Z,95940.1
2019-03-24T10:18:31.249Z,95929.7
2019-03-24T10:23:29.170Z,95932.8
2019-03-24T10:28:27.452Z,95922.7
2019-03-24T10:33:25.041Z,95911.3
2019-03-24T10:38:22.928Z,95907.6
2019-03-24T10:43:20.605Z,95892.7
2019-03-24T10:48:18.060Z,95889.6
2019-03-24T10:53:15.883Z,95878.7
2019-03-24T10:58:13.683Z,95840.5
2019-03-24T11:03:11.454Z,95859.8
2019-03-24T11:08:09.126Z,95842.7
2019-03-24T11:13:06.883Z,95842.3
2019-03-24T11:18:04.525Z,95833.8
2019-03-24T11:23:02.292Z,95829.3
2019-03-24T11:27:59.821Z,95820.3
2019-03-24T11:32:57.836Z,95808.1
2019-03-24T11:37:55.467Z,95812.7
2019-03-24T11:42:53.209Z,95806.7
2019-03-24T11:47:50.979Z,95795
2019-03-24T11:52:48.313Z,95788.6
2019-03-24T11:57:46.275Z,95793.1
2019-03-24T12:02:43.855Z,95779.8
2019-03-24T12:07:41.396Z,95832.5
2019-03-24T12:12:38.990Z,95741.3
2019-03-24T12:17:36.773Z,95775.7
2019-03-24T12:22:34.542Z,95689.7
2019-03-24T12:27:32.473Z,95685.7
2019-03-24T12:32:30.199Z,95679.1
2019-03-24T12:37:27.890Z,95707.9
2019-03-24T12:42:25.523Z,95655.7
2019-03-24T12:47:23.273Z,95650.6
2019-03-24T12:52:20.963Z,95647.8
2019-03-24T12:57:18.628Z,95643.2
2019-03-24T13:02:16.590Z,95615.7
2019-03-24T13:07:14.360Z,95598.8
2019-03-24T13:12:12.074Z,95621.3
2019-03-24T13:17:09.691Z,95613.1
2019-03-24T13:22:07.072Z,95604.6
2019-03-24T13:27:04.903Z,95600.1
2019-03-24T13:32:02.818Z,95599
2019-03-24T13:37:00.479Z,95588.6
2019-03-24T13:41:58.156Z,95579
2019-03-24T13:46:55.899Z,95571.9
2019-03-24T13:51:53.507Z,95562
2019-03-24T13:56:51.212Z,95559.1
2019-03-24T14:01:48.974Z,95553.7
2019-03-24T14:06:46.565Z,95529.8
2019-03-24T14:11:44.264Z,95554.3
2019-03-24T14:16:41.995Z,95549.4
2019-03-24T14:21:39.416Z,95549.6
2019-03-24T14:26:37.022Z,95549.1
2019-03-24T14:31:34.557Z,95538.6
2019-03-24T14:36:32.349Z,95638
2019-03-24T14:41:30.022Z,95541.5
2019-03-24T14:46:27.631Z,95538.6
2019-03-24T14:51:25.273Z,95632.4
2019-03-24T14:56:22.883Z,95659.8
2019-03-24T15:01:20.476Z,95523.6
2019-03-24T15:06:18.339Z,95519.4
2019-03-24T15:11:15.968Z,95521.4
2019-03-24T15:16:13.484Z,95518.1
2019-03-24T15:21:11.737Z,95585.7
2019-03-24T15:26:09.603Z,95480.5
2019-03-24T15:31:07.072Z,95501.4
2019-03-24T15:36:04.669Z,95495
2019-03-24T15:41:02.530Z,95578.6
2019-03-24T15:46:00.146Z,95492.6
2019-03-24T15:50:57.744Z,95562.5
2019-03-24T15:55:55.376Z,95495.1
2019-03-24T16:00:53.484Z,95565.1
2019-03-24T16:05:50.792Z,95624.8
2019-03-24T16:10:48.402Z,95616.7
2019-03-24T16:15:45.981Z,95631.5
2019-03-24T16:20:43.310Z,95602.9
2019-03-24T16:25:41.603Z,95571.7
2019-03-24T16:30:39.238Z,95611.2
2019-03-24T16:35:36.730Z,95582.3
2019-03-24T16:40:34.462Z,95588.8
2019-03-24T16:45:31.839Z,95624.6
2019-03-24T16:50:29.342Z,95522.5
2019-03-24T16:55:27.568Z,95566.3
2019-03-24T17:00:25.532Z,95442.9
2019-03-24T17:05:22.749Z,95604.7
2019-03-24T17:10:20.975Z,95607.1
2019-03-24T17:15:18.550Z,95607.7
2019-03-24T17:20:16.414Z,95613.4
2019-03-24T17:25:14.168Z,95612.2
2019-03-24T17:30:11.941Z,95610.4
2019-03-24T17:35:09.260Z,95613.2
2019-03-24T17:40:07.126Z,95617.8
2019-03-24T17:45:04.087Z,95620.7
2019-03-24T17:50:02.218Z,95540.7
2019-03-24T17:55:00.385Z,95615.5
2019-03-24T17:59:57.937Z,95513.3
2019-03-24T18:04:55.597Z,95600.5
2019-03-24T18:09:53.684Z,95540.1
2019-03-24T18:14:51.267Z,95619
2019-03-24T18:19:49.163Z,95545.4
2019-03-24T18:24:47.257Z,95547.6
2019-03-24T18:29:45.004Z,95629.8
2019-03-24T18:34:42.551Z,95627.2
2019-03-24T18:39:39.903Z,95623.5
2019-03-24T18:44:37.616Z,95604
2019-03-24T18:49:35.492Z,95543.5
2019-03-24T18:54:32.991Z,95626.1
2019-03-24T18:59:31.209Z,95553.7
2019-03-24T19:04:28.655Z,95622.4
2019-03-24T19:09:26.620Z,95546.7
2019-03-24T19:14:24.057Z,95630.6
2019-03-24T19:19:21.868Z,95627.7
2019-03-24T19:24:19.588Z,95552.5
2019-03-24T19:29:17.572Z,95556.3
2019-03-24T19:34:15.225Z,95552.8
2019-03-24T19:39:13.277Z,95543.3
2019-03-24T19:44:10.893Z,95633.9
2019-03-24T19:49:08.793Z,95551.7
2019-03-24T19:54:06.863Z,95558.1
2019-03-24T19:59:07.362Z,95639.4
2019-03-24T20:04:04.092Z,95612.9
2019-03-24T20:09:02.289Z,95631.1
2019-03-24T20:14:00.870Z,95637.1
2019-03-24T20:18:58.264Z,95565.4
2019-03-24T20:23:55.362Z,95632.6
2019-03-24T20:28:52.742Z,95631.1
2019-03-24T20:33:50.866Z,95547.9
2019-03-24T20:38:48.324Z,95611.7
2019-03-24T20:43:46.007Z,95580.8
2019-03-24T20:48:43.798Z,95534.6
2019-03-24T20:53:41.757Z,95427.1
2019-03-24T20:58:39.420Z,95612.6
2019-03-24T21:03:36.724Z,95619.6
2019-03-24T21:08:34.296Z,95588.9
2019-03-24T21:13:31.736Z,95623.2
2019-03-24T21:18:29.868Z,95545
2019-03-24T21:23:29.647Z,95619.4
2019-03-24T21:28:24.865Z,95616.1
2019-03-24T21:33:22.911Z,95613.1
2019-03-24T21:38:20.414Z,95581.7
2019-03-24T21:43:18.479Z,95494.8
2019-03-24T21:48:16.144Z,95522.9
2019-03-24T21:53:13.829Z,95594.3
2019-03-24T21:58:11.965Z,95509.8
2019-03-24T22:03:09.424Z,95503.5
2019-03-24T22:08:09.298Z,95495.9
2019-03-24T22:13:08.242Z,95580.4
2019-03-24T22:18:07.277Z,95653.8
2019-03-24T22:23:05.927Z,95576.4
2019-03-24T22:28:03.507Z,95492.2
2019-03-24T22:33:03.162Z,95494.8
2019-03-24T22:38:02.167Z,95494.7
2019-03-24T22:43:02.679Z,95581
2019-03-24T22:48:02.193Z,95499.1
2019-03-24T22:53:00.781Z,95496.8
2019-03-24T22:57:59.553Z,95494.4
2019-03-24T23:02:56.390Z,95494.7
2019-03-24T23:07:53.456Z,95493.4
2019-03-24T23:12:50.867Z,95492.4
2019-03-24T23:17:48.280Z,95486.9
2019-03-24T23:22:45.850Z,95484.6
2019-03-24T23:27:43.781Z,95481.7
2019-03-24T23:32:41.597Z,95562.6
2019-03-24T23:37:39.253Z,95478.6
2019-03-24T23:42:36.816Z,95480.5
2019-03-24T23:47:34.470Z,95500.5
2019-03-24T23:52:32.461Z,95461.5
2019-03-24T23:57:30.112Z,95460.1
